createdAt,value
2023-01-17T00:00:32.424Z,0
2023-01-17T00:01:32.038Z,0
2023-01-17T00:02:32.408Z,0
2023-01-17T00:03:32.177Z,0
2023-01-17T00:04:35.159Z,0
2023-01-17T00:05:32.080Z,0
2023-01-17T00:06:32.078Z,0
2023-01-17T00:07:32.091Z,0
2023-01-17T00:08:32.112Z,0
2023-01-17T00:09:32.133Z,0
2023-01-17T00:10:35.214Z,0
2023-01-17T00:11:32.102Z,0
2023-01-17T00:12:32.150Z,0
2023-01-17T00:13:32.117Z,0
2023-01-17T00:14:32.143Z,0
2023-01-17T00:15:35.153Z,0
2023-01-17T00:16:32.230Z,0
2023-01-17T00:17:32.086Z,0
2023-01-17T00:18:32.070Z,0
2023-01-17T00:19:32.097Z,0
2023-01-17T00:20:32.154Z,0
2023-01-17T00:21:35.093Z,0
2023-01-17T00:22:32.144Z,0
2023-01-17T00:23:32.069Z,0
2023-01-17T00:24:32.130Z,0
2023-01-17T00:25:34.871Z,0
2023-01-17T00:26:35.424Z,0
2023-01-17T00:27:32.113Z,0
2023-01-17T00:28:32.189Z,0
2023-01-17T00:29:32.183Z,0
2023-01-17T00:30:32.177Z,0
2023-01-17T00:31:32.552Z,0
2023-01-17T00:32:34.960Z,0
2023-01-17T00:33:32.163Z,0
2023-01-17T00:34:32.194Z,0
2023-01-17T00:35:32.248Z,0
2023-01-17T00:36:33.137Z,0
2023-01-17T00:37:36.409Z,0
2023-01-17T00:38:32.185Z,0
2023-01-17T00:39:32.221Z,0
2023-01-17T00:40:32.186Z,0
2023-01-17T00:41:32.148Z,0
2023-01-17T00:42:32.096Z,0
2023-01-17T00:43:34.970Z,0
2023-01-17T00:44:32.144Z,0
2023-01-17T00:45:32.210Z,0
2023-01-17T00:46:32.652Z,0
2023-01-17T00:47:32.202Z,0
2023-01-17T00:48:34.872Z,0
2023-01-17T00:49:32.235Z,0
2023-01-17T00:50:32.179Z,0
2023-01-17T00:51:32.137Z,0
2023-01-17T00:52:32.116Z,0
2023-01-17T00:53:32.163Z,0
2023-01-17T00:54:35.220Z,0
2023-01-17T00:55:32.152Z,0
2023-01-17T00:56:32.218Z,0
2023-01-17T00:57:34.943Z,0
2023-01-17T00:58:32.147Z,0
2023-01-17T00:59:34.973Z,0
2023-01-17T01:00:32.443Z,0
2023-01-17T01:01:32.937Z,0
2023-01-17T01:02:35.606Z,0
2023-01-17T01:03:32.167Z,0
2023-01-17T01:04:35.170Z,0
2023-01-17T01:05:35.293Z,0
2023-01-17T01:06:32.186Z,0
2023-01-17T01:07:32.181Z,0
2023-01-17T01:08:32.180Z,0
2023-01-17T01:09:32.183Z,0
2023-01-17T01:10:35.003Z,0
2023-01-17T01:11:32.207Z,0
2023-01-17T01:12:32.206Z,0
2023-01-17T01:13:32.169Z,0
2023-01-17T01:14:32.526Z,0
2023-01-17T01:15:35.172Z,0
2023-01-17T01:16:35.704Z,0
2023-01-17T01:17:32.183Z,0
2023-01-17T01:18:32.228Z,0
2023-01-17T01:19:32.285Z,0
2023-01-17T01:20:32.218Z,0
2023-01-17T01:21:35.287Z,0
2023-01-17T01:22:35.174Z,0
2023-01-17T01:23:32.215Z,0
2023-01-17T01:24:32.203Z,0
2023-01-17T01:25:32.230Z,0
2023-01-17T01:26:35.300Z,0
2023-01-17T01:27:32.229Z,0
2023-01-17T01:28:32.278Z,0
2023-01-17T01:29:32.220Z,0
2023-01-17T01:30:33.313Z,0
2023-01-17T01:31:32.551Z,0
2023-01-17T01:32:35.348Z,0
2023-01-17T01:33:32.236Z,0
2023-01-17T01:34:32.263Z,0
2023-01-17T01:35:32.281Z,0
2023-01-17T01:36:32.365Z,0
2023-01-17T01:37:35.376Z,0
2023-01-17T01:38:32.261Z,0
2023-01-17T01:39:32.219Z,0
2023-01-17T01:40:32.285Z,0
2023-01-17T01:41:32.233Z,0
2023-01-17T01:42:32.258Z,0
2023-01-17T01:43:35.359Z,0
2023-01-17T01:44:32.242Z,0
2023-01-17T01:45:32.695Z,0
2023-01-17T01:46:32.248Z,0
2023-01-17T01:47:32.489Z,0
2023-01-17T01:48:32.460Z,0
2023-01-17T01:49:32.248Z,0
2023-01-17T01:50:32.320Z,0
2023-01-17T01:51:32.240Z,0
2023-01-17T01:52:32.223Z,0
2023-01-17T01:53:32.452Z,0
2023-01-17T01:54:32.218Z,0
2023-01-17T01:55:32.255Z,0
2023-01-17T01:56:34.963Z,0
2023-01-17T01:57:32.311Z,0
2023-01-17T01:58:32.287Z,0
2023-01-17T01:59:32.262Z,0
2023-01-17T02:00:32.347Z,0
2023-01-17T02:01:32.903Z,0
2023-01-17T02:02:32.271Z,0
2023-01-17T02:03:32.547Z,0
2023-01-17T02:04:32.247Z,0
2023-01-17T02:05:32.330Z,0
2023-01-17T02:06:32.288Z,0
2023-01-17T02:07:32.261Z,0
2023-01-17T02:08:32.285Z,0
2023-01-17T02:09:32.322Z,0
2023-01-17T02:10:32.287Z,0
2023-01-17T02:11:32.259Z,0
2023-01-17T02:12:32.339Z,0
2023-01-17T02:13:32.359Z,0
2023-01-17T02:14:32.297Z,0
2023-01-17T02:15:37.172Z,0
2023-01-17T02:16:32.864Z,0
2023-01-17T02:17:32.276Z,0
2023-01-17T02:18:32.285Z,0
2023-01-17T02:19:32.479Z,0
2023-01-17T02:20:32.295Z,0
2023-01-17T02:21:32.309Z,0
2023-01-17T02:22:32.322Z,0
2023-01-17T02:23:32.294Z,0
2023-01-17T02:24:32.315Z,0
2023-01-17T02:25:32.304Z,0
2023-01-17T02:26:35.242Z,0
2023-01-17T02:27:32.308Z,0
2023-01-17T02:28:32.296Z,0
2023-01-17T02:29:35.030Z,0
2023-01-17T02:30:32.434Z,0
2023-01-17T02:31:35.612Z,0
2023-01-17T02:32:32.467Z,0
2023-01-17T02:33:32.311Z,0
2023-01-17T02:34:32.327Z,0
2023-01-17T02:35:32.395Z,0
2023-01-17T02:36:32.301Z,0
2023-01-17T02:37:35.130Z,0
2023-01-17T02:38:35.486Z,0
2023-01-17T02:39:32.352Z,0
2023-01-17T02:40:32.307Z,0
2023-01-17T02:41:32.351Z,0
2023-01-17T02:42:35.221Z,0
2023-01-17T02:43:32.328Z,0
2023-01-17T02:44:32.161Z,0
2023-01-17T02:45:32.489Z,0
2023-01-17T02:46:32.348Z,0
2023-01-17T02:47:32.406Z,0
2023-01-17T02:48:35.147Z,0
2023-01-17T02:49:32.336Z,0
2023-01-17T02:50:32.305Z,0
2023-01-17T02:51:32.389Z,0
2023-01-17T02:52:32.304Z,0
2023-01-17T02:53:35.397Z,0
2023-01-17T02:54:32.349Z,0
2023-01-17T02:55:32.329Z,0
2023-01-17T02:56:34.794Z,0
2023-01-17T02:57:32.496Z,0
2023-01-17T02:58:32.376Z,0
2023-01-17T02:59:35.081Z,0
2023-01-17T03:00:32.332Z,0
2023-01-17T03:01:33.175Z,0
2023-01-17T03:02:32.712Z,0
2023-01-17T03:03:32.393Z,0
2023-01-17T03:04:35.413Z,0
2023-01-17T03:05:32.355Z,0
2023-01-17T03:06:32.384Z,0
2023-01-17T03:07:32.427Z,0
2023-01-17T03:08:32.366Z,0
2023-01-17T03:09:32.212Z,0
2023-01-17T03:10:35.164Z,0
2023-01-17T03:11:32.421Z,0
2023-01-17T03:12:32.380Z,0
2023-01-17T03:13:32.385Z,0
2023-01-17T03:14:32.365Z,0
2023-01-17T03:15:35.247Z,0
2023-01-17T03:16:32.689Z,0
2023-01-17T03:17:32.404Z,0
2023-01-17T03:18:32.407Z,0
2023-01-17T03:19:32.526Z,0
2023-01-17T03:20:32.371Z,0
2023-01-17T03:21:35.283Z,0
2023-01-17T03:22:32.418Z,0
2023-01-17T03:23:32.428Z,0
2023-01-17T03:24:32.418Z,0
2023-01-17T03:25:32.428Z,0
2023-01-17T03:26:35.488Z,0
2023-01-17T03:27:32.378Z,0
2023-01-17T03:28:32.394Z,0
2023-01-17T03:29:32.415Z,0
2023-01-17T03:30:32.775Z,0
2023-01-17T03:31:33.294Z,0
2023-01-17T03:32:35.219Z,0
2023-01-17T03:33:32.397Z,0
2023-01-17T03:34:32.428Z,0
2023-01-17T03:35:32.517Z,0
2023-01-17T03:36:32.500Z,0
2023-01-17T03:37:35.241Z,0
2023-01-17T03:38:32.397Z,0
2023-01-17T03:39:32.477Z,0
2023-01-17T03:40:33.399Z,0
2023-01-17T03:41:32.480Z,0
2023-01-17T03:42:35.233Z,0
2023-01-17T03:43:32.457Z,0
2023-01-17T03:44:32.448Z,0
2023-01-17T03:45:32.563Z,0
2023-01-17T03:46:32.620Z,0
2023-01-17T03:47:32.459Z,0
2023-01-17T03:48:35.444Z,0
2023-01-17T03:49:32.428Z,0
2023-01-17T03:50:32.520Z,0
2023-01-17T03:51:32.540Z,0
2023-01-17T03:52:32.447Z,0
2023-01-17T03:53:35.209Z,0
2023-01-17T03:54:32.451Z,0
2023-01-17T03:55:32.471Z,0
2023-01-17T03:56:32.485Z,0
2023-01-17T03:57:32.492Z,0
2023-01-17T03:58:32.454Z,0
2023-01-17T03:59:35.532Z,0
2023-01-17T04:00:32.649Z,0
2023-01-17T04:01:33.339Z,0
2023-01-17T04:02:32.685Z,0
2023-01-17T04:03:32.579Z,0
2023-01-17T04:04:36.301Z,0
2023-01-17T04:05:32.438Z,0
2023-01-17T04:06:32.514Z,0
2023-01-17T04:07:32.304Z,0
2023-01-17T04:08:32.509Z,0
2023-01-17T04:09:32.653Z,0
2023-01-17T04:10:35.312Z,0
2023-01-17T04:11:32.503Z,0
2023-01-17T04:12:32.453Z,0
2023-01-17T04:13:32.505Z,0
2023-01-17T04:14:32.505Z,0
2023-01-17T04:15:35.409Z,0
2023-01-17T04:16:32.715Z,0
2023-01-17T04:17:32.446Z,0
2023-01-17T04:18:32.433Z,0
2023-01-17T04:19:32.497Z,0
2023-01-17T04:20:32.478Z,0
2023-01-17T04:21:32.515Z,0
2023-01-17T04:22:35.486Z,0
2023-01-17T04:23:32.484Z,0
2023-01-17T04:24:32.657Z,0
2023-01-17T04:25:32.500Z,0
2023-01-17T04:26:32.562Z,0
2023-01-17T04:27:32.480Z,0
2023-01-17T04:28:32.653Z,0
2023-01-17T04:29:32.538Z,0
2023-01-17T04:30:32.644Z,0
2023-01-17T04:31:32.807Z,0
2023-01-17T04:32:32.519Z,0
2023-01-17T04:33:32.474Z,0
2023-01-17T04:34:32.476Z,0
2023-01-17T04:35:32.497Z,0
2023-01-17T04:36:32.565Z,0
2023-01-17T04:37:32.496Z,0
2023-01-17T04:38:32.541Z,0
2023-01-17T04:39:32.512Z,0
2023-01-17T04:40:32.491Z,0
2023-01-17T04:41:32.712Z,0
2023-01-17T04:42:35.365Z,0
2023-01-17T04:43:32.525Z,0
2023-01-17T04:44:32.500Z,0
2023-01-17T04:45:32.546Z,0
2023-01-17T04:46:33.037Z,0
2023-01-17T04:47:32.530Z,0
2023-01-17T04:48:32.508Z,0
2023-01-17T04:49:32.532Z,0
2023-01-17T04:50:32.539Z,0
2023-01-17T04:51:32.560Z,0
2023-01-17T04:52:32.513Z,0
2023-01-17T04:53:35.329Z,0
2023-01-17T04:54:32.539Z,0
2023-01-17T04:55:32.540Z,0
2023-01-17T04:56:35.556Z,0
2023-01-17T04:57:32.653Z,0
2023-01-17T04:58:35.376Z,0
2023-01-17T04:59:32.541Z,0
2023-01-17T05:00:33.572Z,0
2023-01-17T05:01:33.337Z,0
2023-01-17T05:02:32.909Z,0
2023-01-17T05:03:32.565Z,0
2023-01-17T05:04:35.556Z,0
2023-01-17T05:05:32.567Z,0
2023-01-17T05:06:32.575Z,0
2023-01-17T05:07:33.888Z,0
2023-01-17T05:08:32.638Z,0
2023-01-17T05:09:35.660Z,0
2023-01-17T05:10:32.565Z,0
2023-01-17T05:11:32.567Z,0
2023-01-17T05:12:32.538Z,0
2023-01-17T05:13:32.589Z,0
2023-01-17T05:14:32.631Z,0
2023-01-17T05:15:36.668Z,0
2023-01-17T05:16:32.584Z,0
2023-01-17T05:17:32.615Z,0
2023-01-17T05:18:32.632Z,0
2023-01-17T05:19:32.607Z,0
2023-01-17T05:20:35.464Z,0
2023-01-17T05:21:32.612Z,0
2023-01-17T05:22:32.574Z,0
2023-01-17T05:23:35.541Z,0
2023-01-17T05:24:32.590Z,0
2023-01-17T05:25:32.609Z,0
2023-01-17T05:26:35.424Z,0
2023-01-17T05:27:32.559Z,0
2023-01-17T05:28:32.579Z,0
2023-01-17T05:29:32.645Z,0
2023-01-17T05:30:32.717Z,0
2023-01-17T05:31:36.031Z,0
2023-01-17T05:32:32.570Z,0
2023-01-17T05:33:32.677Z,0
2023-01-17T05:34:32.641Z,0
2023-01-17T05:35:32.679Z,0
2023-01-17T05:36:32.633Z,0
2023-01-17T05:37:35.581Z,0
2023-01-17T05:38:32.602Z,0
2023-01-17T05:39:32.703Z,0
2023-01-17T05:40:32.731Z,0
2023-01-17T05:41:32.642Z,0
2023-01-17T05:42:35.535Z,0
2023-01-17T05:43:32.618Z,0
2023-01-17T05:44:32.747Z,0
2023-01-17T05:45:32.619Z,0
2023-01-17T05:46:33.198Z,0
2023-01-17T05:47:32.605Z,0
2023-01-17T05:48:35.698Z,0
2023-01-17T05:49:32.676Z,0
2023-01-17T05:50:32.702Z,0
2023-01-17T05:51:32.615Z,0
2023-01-17T05:52:32.666Z,0
2023-01-17T05:53:35.621Z,0
2023-01-17T05:54:32.598Z,0
2023-01-17T05:55:32.652Z,0
2023-01-17T05:56:32.677Z,0
2023-01-17T05:57:32.633Z,0
2023-01-17T05:58:35.378Z,0
2023-01-17T05:59:45.740Z,0
2023-01-17T06:00:32.648Z,0
2023-01-17T06:01:32.699Z,0
2023-01-17T06:02:32.971Z,0
2023-01-17T06:03:32.684Z,0
2023-01-17T06:04:35.902Z,0
2023-01-17T06:05:32.629Z,0
2023-01-17T06:06:32.695Z,0
2023-01-17T06:07:32.691Z,0
2023-01-17T06:08:32.818Z,0
2023-01-17T06:09:35.798Z,0
2023-01-17T06:10:32.681Z,0
2023-01-17T06:11:32.712Z,0
2023-01-17T06:12:32.660Z,0
2023-01-17T06:13:32.786Z,0
2023-01-17T06:14:32.647Z,0
2023-01-17T06:15:35.533Z,0
2023-01-17T06:16:32.971Z,0
2023-01-17T06:17:32.663Z,0
2023-01-17T06:18:32.850Z,0
2023-01-17T06:19:32.740Z,0
2023-01-17T06:20:35.795Z,0
2023-01-17T06:21:32.753Z,0
2023-01-17T06:22:32.728Z,0
2023-01-17T06:23:32.684Z,0
2023-01-17T06:24:32.654Z,0
2023-01-17T06:25:32.673Z,0
2023-01-17T06:26:33.548Z,0
2023-01-17T06:27:32.717Z,0
2023-01-17T06:28:32.667Z,0
2023-01-17T06:29:32.730Z,0
2023-01-17T06:30:32.680Z,0
2023-01-17T06:31:35.897Z,0
2023-01-17T06:32:32.702Z,0
2023-01-17T06:33:32.708Z,0
2023-01-17T06:34:32.712Z,0
2023-01-17T06:35:32.725Z,0
2023-01-17T06:36:32.797Z,0
2023-01-17T06:37:35.887Z,0
2023-01-17T06:38:32.788Z,0
2023-01-17T06:39:32.773Z,0
2023-01-17T06:40:32.820Z,0
2023-01-17T06:41:32.763Z,0
2023-01-17T06:42:32.980Z,0
2023-01-17T06:43:32.812Z,0
2023-01-17T06:44:32.703Z,0
2023-01-17T06:45:32.794Z,0
2023-01-17T06:46:33.069Z,0
2023-01-17T06:47:32.739Z,0
2023-01-17T06:48:32.815Z,0
2023-01-17T06:49:32.710Z,0
2023-01-17T06:50:32.871Z,0
2023-01-17T06:51:32.786Z,0
2023-01-17T06:52:32.748Z,0
2023-01-17T06:53:32.777Z,0
2023-01-17T06:54:32.769Z,0
2023-01-17T06:55:32.693Z,0
2023-01-17T06:56:32.748Z,0
2023-01-17T06:57:32.762Z,0
2023-01-17T06:58:32.789Z,0
2023-01-17T06:59:32.747Z,0
2023-01-17T07:00:34.296Z,0
2023-01-17T07:01:33.547Z,0
2023-01-17T07:02:33.040Z,0
2023-01-17T07:03:32.928Z,0
2023-01-17T07:04:32.788Z,0
2023-01-17T07:05:32.807Z,0
2023-01-17T07:06:32.813Z,0
2023-01-17T07:07:35.915Z,0
2023-01-17T07:08:32.852Z,0
2023-01-17T07:09:35.523Z,0
2023-01-17T07:10:33.059Z,0
2023-01-17T07:11:32.742Z,0
2023-01-17T07:12:32.770Z,0
2023-01-17T07:13:34.812Z,0
2023-01-17T07:14:32.747Z,0
2023-01-17T07:15:32.796Z,0
2023-01-17T07:16:33.220Z,0
2023-01-17T07:17:32.862Z,0
2023-01-17T07:18:32.800Z,0
2023-01-17T07:19:32.891Z,0
2023-01-17T07:20:35.813Z,0
2023-01-17T07:21:32.834Z,0
2023-01-17T07:22:32.847Z,0
2023-01-17T07:23:32.795Z,0
2023-01-17T07:24:32.771Z,0
2023-01-17T07:25:35.687Z,0
2023-01-17T07:26:32.915Z,0
2023-01-17T07:27:32.852Z,0
2023-01-17T07:28:32.829Z,0
2023-01-17T07:29:32.795Z,0
2023-01-17T07:30:32.784Z,0
2023-01-17T07:31:36.046Z,0
2023-01-17T07:32:32.859Z,0
2023-01-17T07:33:32.810Z,0
2023-01-17T07:34:32.817Z,0
2023-01-17T07:35:32.829Z,0
2023-01-17T07:36:35.708Z,0
2023-01-17T07:37:32.847Z,0
2023-01-17T07:38:32.867Z,0
2023-01-17T07:39:32.827Z,0
2023-01-17T07:40:41.479Z,0
2023-01-17T07:41:32.815Z,0
2023-01-17T07:42:36.403Z,0
2023-01-17T07:43:32.856Z,0
2023-01-17T07:44:32.795Z,0
2023-01-17T07:45:32.839Z,5
2023-01-17T07:46:33.206Z,5
2023-01-17T07:47:35.822Z,5
2023-01-17T07:48:32.875Z,5
2023-01-17T07:49:32.831Z,5
2023-01-17T07:50:32.858Z,0
2023-01-17T07:51:35.036Z,5
2023-01-17T07:52:32.939Z,5
2023-01-17T07:53:36.373Z,5
2023-01-17T07:54:32.887Z,5
2023-01-17T07:55:32.861Z,5
2023-01-17T07:56:32.841Z,5
2023-01-17T07:57:32.899Z,5
2023-01-17T07:58:35.602Z,5
2023-01-17T07:59:32.881Z,5
2023-01-17T08:00:32.888Z,15
2023-01-17T08:01:33.818Z,35
2023-01-17T08:02:32.898Z,60
2023-01-17T08:03:32.995Z,50
2023-01-17T08:04:35.904Z,80
2023-01-17T08:05:32.916Z,120
2023-01-17T08:06:33.009Z,160
2023-01-17T08:07:33.016Z,180
2023-01-17T08:08:32.879Z,190
2023-01-17T08:09:35.781Z,190
2023-01-17T08:10:33.026Z,195
2023-01-17T08:11:32.882Z,195
2023-01-17T08:12:33.002Z,195
2023-01-17T08:13:34.508Z,195
2023-01-17T08:14:32.895Z,195
2023-01-17T08:15:35.675Z,190
2023-01-17T08:16:33.120Z,180
2023-01-17T08:17:32.910Z,160
2023-01-17T08:18:33.125Z,85
2023-01-17T08:19:32.955Z,35
2023-01-17T08:20:38.383Z,20
2023-01-17T08:21:32.859Z,15
2023-01-17T08:22:32.956Z,15
2023-01-17T08:23:32.884Z,15
2023-01-17T08:24:33.057Z,5
2023-01-17T08:25:35.763Z,5
2023-01-17T08:26:35.920Z,5
2023-01-17T08:27:34.550Z,5
2023-01-17T08:28:32.907Z,5
2023-01-17T08:29:32.910Z,5
2023-01-17T08:30:33.023Z,5
2023-01-17T08:31:36.195Z,5
2023-01-17T08:32:32.885Z,5
2023-01-17T08:33:32.929Z,5
2023-01-17T08:34:32.924Z,5
2023-01-17T08:35:34.924Z,5
2023-01-17T08:36:36.174Z,5
2023-01-17T08:37:35.951Z,5
2023-01-17T08:38:32.995Z,5
2023-01-17T08:39:32.888Z,5
2023-01-17T08:40:32.973Z,5
2023-01-17T08:41:33.027Z,5
2023-01-17T08:42:35.659Z,10
2023-01-17T08:43:32.915Z,10
2023-01-17T08:44:32.940Z,10
2023-01-17T08:45:33.133Z,10
2023-01-17T08:46:35.133Z,10
2023-01-17T08:47:34.488Z,10
2023-01-17T08:48:32.986Z,10
2023-01-17T08:49:32.947Z,10
2023-01-17T08:50:32.971Z,10
2023-01-17T08:51:32.965Z,20
2023-01-17T08:52:33.061Z,15
2023-01-17T08:53:33.183Z,10
2023-01-17T08:54:33.051Z,10
2023-01-17T08:55:32.920Z,10
2023-01-17T08:56:32.949Z,10
2023-01-17T08:57:33.062Z,10
2023-01-17T08:58:37.550Z,10
2023-01-17T08:59:32.942Z,10
2023-01-17T09:00:33.090Z,10
2023-01-17T09:01:33.949Z,10
2023-01-17T09:02:33.140Z,10
2023-01-17T09:03:32.924Z,15
2023-01-17T09:04:35.906Z,15
2023-01-17T09:05:32.958Z,10
2023-01-17T09:06:32.947Z,10
2023-01-17T09:07:32.959Z,15
2023-01-17T09:08:33.042Z,15
2023-01-17T09:09:36.021Z,10
2023-01-17T09:10:35.719Z,10
2023-01-17T09:11:32.978Z,15
2023-01-17T09:12:32.969Z,10
2023-01-17T09:13:33.050Z,10
2023-01-17T09:14:32.963Z,10
2023-01-17T09:15:32.955Z,10
2023-01-17T09:16:33.141Z,10
2023-01-17T09:17:32.992Z,10
2023-01-17T09:18:33.122Z,10
2023-01-17T09:19:32.988Z,10
2023-01-17T09:20:32.940Z,10
2023-01-17T09:21:33.026Z,10
2023-01-17T09:22:32.998Z,10
2023-01-17T09:23:32.977Z,10
2023-01-17T09:24:33.115Z,10
2023-01-17T09:25:33.090Z,10
2023-01-17T09:26:32.967Z,10
2023-01-17T09:27:32.960Z,10
2023-01-17T09:28:32.942Z,10
2023-01-17T09:29:33.071Z,10
2023-01-17T09:30:33.127Z,10
2023-01-17T09:31:33.017Z,10
2023-01-17T09:32:34.010Z,10
2023-01-17T09:33:33.024Z,10
2023-01-17T09:34:33.112Z,10
2023-01-17T09:35:32.983Z,10
2023-01-17T09:36:36.214Z,10
2023-01-17T09:37:33.028Z,10
2023-01-17T09:38:33.023Z,10
2023-01-17T09:39:33.029Z,10
2023-01-17T09:40:33.095Z,10
2023-01-17T09:41:33.058Z,10
2023-01-17T09:42:32.992Z,10
2023-01-17T09:43:33.043Z,10
2023-01-17T09:44:33.090Z,10
2023-01-17T09:45:33.094Z,10
2023-01-17T09:46:33.018Z,10
2023-01-17T09:47:36.343Z,10
2023-01-17T09:48:33.019Z,10
2023-01-17T09:49:33.047Z,10
2023-01-17T09:50:33.064Z,10
2023-01-17T09:51:33.123Z,10
2023-01-17T09:52:35.812Z,10
2023-01-17T09:53:32.997Z,10
2023-01-17T09:54:32.971Z,10
2023-01-17T09:55:33.002Z,15
2023-01-17T09:56:33.037Z,15
2023-01-17T09:57:33.103Z,15
2023-01-17T09:58:36.008Z,10
2023-01-17T09:59:46.853Z,10
2023-01-17T10:00:34.076Z,10
2023-01-17T10:01:34.189Z,10
2023-01-17T10:02:36.496Z,10
2023-01-17T10:03:36.468Z,10
2023-01-17T10:04:33.070Z,10
2023-01-17T10:05:33.087Z,15
2023-01-17T10:06:33.105Z,15
2023-01-17T10:07:33.103Z,15
2023-01-17T10:08:33.024Z,10
2023-01-17T10:09:33.203Z,10
2023-01-17T10:10:33.038Z,10
2023-01-17T10:11:33.045Z,10
2023-01-17T10:12:33.105Z,10
2023-01-17T10:13:33.008Z,10
2023-01-17T10:14:35.873Z,10
2023-01-17T10:15:33.077Z,10
2023-01-17T10:16:33.210Z,10
2023-01-17T10:17:33.156Z,10
2023-01-17T10:18:39.414Z,15
2023-01-17T10:19:33.050Z,15
2023-01-17T10:20:36.096Z,15
2023-01-17T10:21:33.104Z,15
2023-01-17T10:22:33.115Z,15
2023-01-17T10:23:33.064Z,10
2023-01-17T10:24:33.048Z,10
2023-01-17T10:25:35.899Z,15
2023-01-17T10:26:33.057Z,15
2023-01-17T10:27:33.058Z,15
2023-01-17T10:28:33.118Z,20
2023-01-17T10:29:33.044Z,15
2023-01-17T10:30:33.169Z,15
2023-01-17T10:31:35.837Z,10
2023-01-17T10:32:33.183Z,10
2023-01-17T10:33:33.089Z,10
2023-01-17T10:34:35.846Z,10
2023-01-17T10:35:33.066Z,10
2023-01-17T10:36:35.872Z,10
2023-01-17T10:37:33.133Z,10
2023-01-17T10:38:33.094Z,10
2023-01-17T10:39:33.108Z,10
2023-01-17T10:40:33.142Z,15
2023-01-17T10:41:33.106Z,15
2023-01-17T10:42:36.390Z,20
2023-01-17T10:43:33.089Z,20
2023-01-17T10:44:33.199Z,20
2023-01-17T10:45:33.457Z,20
2023-01-17T10:46:33.637Z,15
2023-01-17T10:47:35.921Z,15
2023-01-17T10:48:33.212Z,15
2023-01-17T10:49:33.240Z,15
2023-01-17T10:50:33.110Z,15
2023-01-17T10:51:33.237Z,10
2023-01-17T10:52:35.912Z,10
2023-01-17T10:53:36.246Z,10
2023-01-17T10:54:33.159Z,10
2023-01-17T10:55:33.139Z,10
2023-01-17T10:56:33.113Z,10
2023-01-17T10:57:33.202Z,10
2023-01-17T10:58:36.190Z,10
2023-01-17T10:59:33.149Z,10
2023-01-17T11:00:33.203Z,10
2023-01-17T11:01:33.990Z,10
2023-01-17T11:02:34.196Z,10
2023-01-17T11:03:34.540Z,10
2023-01-17T11:04:35.983Z,15
2023-01-17T11:05:33.119Z,15
2023-01-17T11:06:41.178Z,15
2023-01-17T11:07:33.239Z,10
2023-01-17T11:08:33.213Z,10
2023-01-17T11:09:36.203Z,10
2023-01-17T11:10:33.181Z,10
2023-01-17T11:11:33.231Z,10
2023-01-17T11:12:33.195Z,10
2023-01-17T11:13:33.236Z,5
2023-01-17T11:14:36.044Z,5
2023-01-17T11:15:33.377Z,5
2023-01-17T11:16:35.854Z,5
2023-01-17T11:17:33.269Z,5
2023-01-17T11:18:33.190Z,5
2023-01-17T11:19:33.169Z,5
2023-01-17T11:20:33.411Z,5
2023-01-17T11:21:33.206Z,5
2023-01-17T11:22:33.138Z,5
2023-01-17T11:23:33.187Z,10
2023-01-17T11:24:33.194Z,10
2023-01-17T11:25:36.174Z,10
2023-01-17T11:26:33.156Z,10
2023-01-17T11:27:33.215Z,10
2023-01-17T11:28:33.234Z,5
2023-01-17T11:29:35.250Z,5
2023-01-17T11:30:33.222Z,5
2023-01-17T11:31:36.171Z,5
2023-01-17T11:32:33.572Z,5
2023-01-17T11:33:35.359Z,5
2023-01-17T11:34:33.254Z,5
2023-01-17T11:35:33.211Z,10
2023-01-17T11:36:36.317Z,10
2023-01-17T11:37:33.201Z,10
2023-01-17T11:38:33.178Z,10
2023-01-17T11:39:33.231Z,10
2023-01-17T11:40:33.213Z,10
2023-01-17T11:41:35.772Z,10
2023-01-17T11:42:33.229Z,10
2023-01-17T11:43:33.399Z,10
2023-01-17T11:44:33.250Z,10
2023-01-17T11:45:33.204Z,10
2023-01-17T11:46:33.686Z,10
2023-01-17T11:47:33.169Z,10
2023-01-17T11:48:33.230Z,10
2023-01-17T11:49:33.241Z,10
2023-01-17T11:50:33.213Z,10
2023-01-17T11:51:33.411Z,10
2023-01-17T11:52:33.399Z,10
2023-01-17T11:53:33.234Z,10
2023-01-17T11:54:33.191Z,10
2023-01-17T11:55:33.307Z,10
2023-01-17T11:56:33.256Z,10
2023-01-17T11:57:33.269Z,10
2023-01-17T11:58:33.251Z,10
2023-01-17T11:59:33.211Z,10
2023-01-17T12:00:33.204Z,10
2023-01-17T12:01:33.299Z,10
2023-01-17T12:02:33.215Z,10
2023-01-17T12:03:36.810Z,10
2023-01-17T12:04:35.049Z,10
2023-01-17T12:05:33.478Z,10
2023-01-17T12:06:33.308Z,10
2023-01-17T12:07:33.310Z,10
2023-01-17T12:08:33.335Z,10
2023-01-17T12:09:33.284Z,10
2023-01-17T12:10:33.235Z,10
2023-01-17T12:11:33.319Z,10
2023-01-17T12:12:33.284Z,10
2023-01-17T12:13:33.416Z,10
2023-01-17T12:14:36.400Z,10
2023-01-17T12:15:33.213Z,10
2023-01-17T12:16:36.353Z,10
2023-01-17T12:17:33.256Z,10
2023-01-17T12:18:33.321Z,10
2023-01-17T12:19:36.666Z,5
2023-01-17T12:20:33.250Z,5
2023-01-17T12:21:33.314Z,5
2023-01-17T12:22:33.250Z,5
2023-01-17T12:23:33.601Z,5
2023-01-17T12:24:33.303Z,5
2023-01-17T12:25:36.345Z,5
2023-01-17T12:26:36.230Z,5
2023-01-17T12:27:33.226Z,5
2023-01-17T12:28:33.548Z,5
2023-01-17T12:29:33.353Z,5
2023-01-17T12:30:36.439Z,5
2023-01-17T12:31:33.674Z,5
2023-01-17T12:32:33.485Z,5
2023-01-17T12:33:33.259Z,5
2023-01-17T12:34:33.301Z,5
2023-01-17T12:35:33.415Z,5
2023-01-17T12:36:36.257Z,5
2023-01-17T12:37:33.419Z,5
2023-01-17T12:38:41.914Z,5
2023-01-17T12:39:33.282Z,5
2023-01-17T12:40:33.343Z,5
2023-01-17T12:41:39.162Z,5
2023-01-17T12:42:33.293Z,5
2023-01-17T12:43:33.732Z,5
2023-01-17T12:44:33.378Z,5
2023-01-17T12:45:33.463Z,5
2023-01-17T12:46:33.776Z,5
2023-01-17T12:47:36.367Z,5
2023-01-17T12:48:33.301Z,5
2023-01-17T12:49:33.269Z,5
2023-01-17T12:50:33.308Z,5
2023-01-17T12:51:33.404Z,5
2023-01-17T12:52:36.124Z,5
2023-01-17T12:53:33.308Z,5
2023-01-17T12:54:33.517Z,5
2023-01-17T12:55:33.300Z,5
2023-01-17T12:56:33.390Z,5
2023-01-17T12:57:33.536Z,5
2023-01-17T12:59:33.386Z,5
2023-01-17T13:00:36.335Z,5
2023-01-17T13:01:33.817Z,5
2023-01-17T13:02:33.545Z,5
2023-01-17T13:03:36.473Z,5
2023-01-17T13:04:33.307Z,5
2023-01-17T13:05:33.330Z,5
2023-01-17T13:06:33.297Z,5
2023-01-17T13:07:33.473Z,5
2023-01-17T13:08:33.313Z,5
2023-01-17T13:09:36.320Z,5
2023-01-17T13:10:35.642Z,5
2023-01-17T13:11:33.593Z,5
2023-01-17T13:12:33.536Z,5
2023-01-17T13:13:33.391Z,5
2023-01-17T13:14:36.427Z,5
2023-01-17T13:15:36.138Z,5
2023-01-17T13:16:33.625Z,5
2023-01-17T13:17:33.395Z,5
2023-01-17T13:18:33.482Z,5
2023-01-17T13:19:33.721Z,5
2023-01-17T13:20:37.128Z,5
2023-01-17T13:21:33.465Z,5
2023-01-17T13:22:34.020Z,5
2023-01-17T13:23:33.364Z,5
2023-01-17T13:24:33.380Z,5
2023-01-17T13:25:36.314Z,10
2023-01-17T13:26:33.401Z,5
2023-01-17T13:27:33.330Z,5
2023-01-17T13:28:33.435Z,5
2023-01-17T13:29:34.400Z,5
2023-01-17T13:30:39.464Z,5
2023-01-17T13:31:36.720Z,5
2023-01-17T13:32:33.373Z,5
2023-01-17T13:33:33.380Z,5
2023-01-17T13:34:34.084Z,5
2023-01-17T13:35:33.355Z,5
2023-01-17T13:36:36.448Z,5
2023-01-17T13:37:33.404Z,5
2023-01-17T13:38:33.383Z,5
2023-01-17T13:39:33.426Z,5
2023-01-17T13:40:36.330Z,5
2023-01-17T13:41:36.397Z,5
2023-01-17T13:42:33.355Z,5
2023-01-17T13:43:33.319Z,5
2023-01-17T13:44:33.522Z,5
2023-01-17T13:45:33.774Z,5
2023-01-17T13:46:33.401Z,5
2023-01-17T13:47:33.562Z,5
2023-01-17T13:48:33.522Z,5
2023-01-17T13:49:33.415Z,5
2023-01-17T13:50:33.410Z,5
2023-01-17T13:51:33.502Z,5
2023-01-17T13:52:39.099Z,5
2023-01-17T13:53:33.445Z,5
2023-01-17T13:54:33.409Z,5
2023-01-17T13:55:33.422Z,5
2023-01-17T13:56:33.529Z,5
2023-01-17T13:57:36.337Z,5
2023-01-17T13:58:36.229Z,5
2023-01-17T13:59:33.409Z,5
2023-01-17T14:00:33.495Z,5
2023-01-17T14:01:34.204Z,5
2023-01-17T14:02:33.405Z,5
2023-01-17T14:03:36.251Z,5
2023-01-17T14:04:33.418Z,5
2023-01-17T14:05:33.423Z,5
2023-01-17T14:06:35.625Z,5
2023-01-17T14:07:33.599Z,5
2023-01-17T14:08:33.453Z,5
2023-01-17T14:09:33.456Z,5
2023-01-17T14:10:33.480Z,5
2023-01-17T14:11:33.491Z,5
2023-01-17T14:12:33.463Z,5
2023-01-17T14:13:33.433Z,5
2023-01-17T14:14:33.474Z,5
2023-01-17T14:15:33.494Z,5
2023-01-17T14:16:34.022Z,5
2023-01-17T14:17:33.434Z,5
2023-01-17T14:18:33.553Z,5
2023-01-17T14:19:33.540Z,5
2023-01-17T14:20:33.404Z,5
2023-01-17T14:21:33.472Z,5
2023-01-17T14:22:33.418Z,5
2023-01-17T14:23:33.494Z,5
2023-01-17T14:24:33.440Z,5
2023-01-17T14:25:33.457Z,5
2023-01-17T14:26:33.450Z,5
2023-01-17T14:27:33.469Z,5
2023-01-17T14:28:33.454Z,5
2023-01-17T14:29:33.652Z,5
2023-01-17T14:30:36.566Z,5
2023-01-17T14:31:33.693Z,5
2023-01-17T14:32:36.724Z,5
2023-01-17T14:33:33.659Z,5
2023-01-17T14:34:33.594Z,5
2023-01-17T14:35:33.590Z,5
2023-01-17T14:36:33.456Z,5
2023-01-17T14:37:33.494Z,5
2023-01-17T14:38:33.458Z,5
2023-01-17T14:39:33.424Z,5